Time;durP1;ratioP1;P1;durP2;ratioP2;P2;SDS_P1;SDS_P2;PMS_P1;PMS_P2;Temp;Humidity;BMP_temperature;BMP_pressure;BME280_temperature;BME280_humidity;BME280_pressure;Samples;Min_cycle;Max_cycle;Signal;HPM_P1;HPM_P2
2022/02/19 00:01:31;;;;;;;13.20;2.42;;;;;;;4.95;83.69;95290.53;5053443;28;24805;-76
2022/02/19 00:03:58;;;;;;;6.55;2.20;;;;;;;4.88;84.99;95285.75;5053659;28;24423;-76
2022/02/19 00:06:26;;;;;;;8.98;2.50;;;;;;;4.90;82.40;95283.97;5053540;28;24427;-76
2022/02/19 00:08:52;;;;;;;12.63;2.47;;;;;;;4.91;82.90;95289.00;5052945;28;24804;-76
2022/02/19 00:11:18;;;;;;;7.63;2.50;;;;;;;4.93;82.76;95299.19;5053433;28;24416;-74
2022/02/19 00:13:45;;;;;;;12.33;2.07;;;;;;;4.86;82.82;95303.81;5053362;28;24415;-74
2022/02/19 00:16:11;;;;;;;8.27;2.50;;;;;;;4.84;84.36;95311.56;5051813;28;24903;-74
2022/02/19 00:18:38;;;;;;;9.98;2.95;;;;;;;4.92;82.06;95288.09;5052799;28;24458;-74
2022/02/19 00:21:05;;;;;;;9.82;2.78;;;;;;;4.84;83.98;95310.72;5053028;28;24789;-75
2022/02/19 00:23:32;;;;;;;8.23;2.80;;;;;;;4.88;82.62;95301.97;5053110;28;24836;-74
2022/02/19 00:25:59;;;;;;;6.78;2.42;;;;;;;4.83;82.86;95319.34;5053098;28;24485;-75
2022/02/19 00:28:25;;;;;;;13.57;3.22;;;;;;;4.82;83.54;95315.09;5052751;28;24447;-74
2022/02/19 00:30:52;;;;;;;17.73;2.83;;;;;;;4.85;81.59;95292.69;5052987;28;24415;-74
2022/02/19 00:33:18;;;;;;;9.07;2.58;;;;;;;4.86;82.22;95326.91;5053240;28;24781;-74
2022/02/19 00:35:47;;;;;;;7.57;2.50;;;;;;;4.98;80.12;95323.75;5052687;28;25014;-74
2022/02/19 00:38:17;;;;;;;17.77;3.15;;;;;;;4.83;81.84;95322.72;5052447;28;24427;-74
2022/02/19 00:40:44;;;;;;;6.53;2.40;;;;;;;4.82;79.29;95325.34;5053020;28;24778;-74
2022/02/19 00:43:11;;;;;;;8.45;2.85;;;;;;;4.80;80.98;95332.31;5052724;28;24428;-74
2022/02/19 00:45:38;;;;;;;13.33;2.50;;;;;;;4.81;79.85;95319.41;5052491;28;24434;-74
2022/02/19 00:48:05;;;;;;;7.65;2.38;;;;;;;4.80;80.57;95352.84;5052272;28;25015;-74
2022/02/19 00:50:32;;;;;;;6.85;2.40;;;;;;;4.80;80.24;95342.56;5052334;28;24431;-74
2022/02/19 00:52:58;;;;;;;9.15;2.60;;;;;;;4.76;80.27;95339.31;5052590;28;24522;-74
2022/02/19 00:55:25;;;;;;;12.05;2.88;;;;;;;4.82;80.15;95345.88;5052459;28;24469;-75
2022/02/19 00:57:53;;;;;;;11.68;2.50;;;;;;;4.79;80.31;95340.91;5052181;28;24781;-74
2022/02/19 01:00:20;;;;;;;14.07;2.42;;;;;;;4.87;80.46;95363.66;5052342;28;24415;-74
2022/02/19 01:02:46;;;;;;;14.77;3.13;;;;;;;4.80;80.98;95351.09;5052359;28;24477;-74
2022/02/19 01:05:13;;;;;;;7.63;2.55;;;;;;;4.77;78.37;95347.84;5052309;28;24422;-75
2022/02/19 01:07:39;;;;;;;9.25;2.28;;;;;;;4.87;79.26;95361.09;5052064;28;24427;-74
2022/02/19 01:10:07;;;;;;;10.02;2.35;;;;;;;4.71;79.33;95361.81;5052364;28;24450;-74
2022/02/19 01:12:33;;;;;;;5.75;2.30;;;;;;;4.71;78.88;95351.53;5052407;28;24854;-74
2022/02/19 01:15:01;;;;;;;6.72;2.40;;;;;;;4.74;77.68;95359.06;5052011;28;24434;-74
2022/02/19 01:17:27;;;;;;;6.30;2.20;;;;;;;4.66;77.56;95362.91;5052054;28;24470;-74
2022/02/19 01:19:54;;;;;;;5.63;1.98;;;;;;;4.64;74.91;95368.13;5052135;28;24426;-74
2022/02/19 01:22:20;;;;;;;9.13;2.55;;;;;;;4.69;74.35;95363.59;5052164;28;24434;-74
2022/02/19 01:24:47;;;;;;;10.38;2.50;;;;;;;4.70;74.34;95372.13;5051929;28;24427;-74
2022/02/19 01:27:13;;;;;;;6.47;2.13;;;;;;;4.81;73.61;95370.72;5051224;28;24423;-74
2022/02/19 01:29:40;;;;;;;6.73;2.20;;;;;;;4.68;74.97;95372.19;5051644;28;24844;-75
2022/02/19 01:32:08;;;;;;;10.90;2.70;;;;;;;4.72;75.36;95388.28;5051661;28;24801;-74
2022/02/19 01:34:35;;;;;;;7.55;2.22;;;;;;;4.76;74.30;95387.25;5051750;28;24844;-74
2022/02/19 01:37:01;;;;;;;7.63;2.40;;;;;;;4.66;74.76;95381.69;5051379;28;24948;-74
2022/02/19 01:39:29;;;;;;;18.00;3.08;;;;;;;4.63;75.25;95384.38;5051944;28;24423;-74
2022/02/19 01:41:55;;;;;;;8.63;2.50;;;;;;;4.55;75.99;95391.59;5051555;28;24426;-74
2022/02/19 01:44:22;;;;;;;9.90;2.65;;;;;;;4.54;75.85;95402.78;5051411;28;24426;-74
2022/02/19 01:46:48;;;;;;;8.73;2.63;;;;;;;4.49;74.66;95404.72;5051381;28;24435;-74
2022/02/19 01:49:16;;;;;;;8.02;2.58;;;;;;;4.49;74.48;95413.25;5051420;28;24509;-74
2022/02/19 01:51:42;;;;;;;8.63;2.87;;;;;;;4.57;73.03;95395.78;5051278;28;25149;-74
2022/02/19 01:54:10;;;;;;;8.20;2.60;;;;;;;4.47;73.68;95414.19;5051416;28;24431;-74
2022/02/19 01:56:37;;;;;;;6.78;2.28;;;;;;;4.43;74.16;95410.94;5051105;28;24422;-74
2022/02/19 01:59:06;;;;;;;11.05;2.85;;;;;;;4.43;74.65;95431.44;5050914;28;24419;-74
2022/02/19 02:01:32;;;;;;;8.68;2.40;;;;;;;4.48;73.07;95398.72;5051378;28;24425;-74
2022/02/19 02:03:59;;;;;;;8.68;2.80;;;;;;;4.42;73.74;95416.97;5051132;28;24427;-74
2022/02/19 02:06:27;;;;;;;9.85;2.75;;;;;;;4.56;73.39;95417.19;5051197;28;24627;-74
2022/02/19 02:08:54;;;;;;;8.68;2.60;;;;;;;4.35;73.86;95418.13;5050729;28;24497;-74
2022/02/19 02:11:21;;;;;;;4.97;2.43;;;;;;;4.28;75.26;95425.25;5051098;28;24905;-74
2022/02/19 02:13:47;;;;;;;7.00;2.37;;;;;;;4.31;73.70;95425.13;5050764;28;24469;-74
2022/02/19 02:16:14;;;;;;;9.50;2.97;;;;;;;4.28;75.28;95427.00;5051073;28;24426;-74
2022/02/19 02:18:43;;;;;;;11.53;2.93;;;;;;;4.22;75.26;95422.94;5050723;28;24423;-74
2022/02/19 02:21:09;;;;;;;11.75;2.95;;;;;;;4.22;74.15;95429.81;5050865;28;24420;-74
2022/02/19 02:23:37;;;;;;;9.80;2.78;;;;;;;4.26;74.02;95433.91;5050870;28;24476;-74
2022/02/19 02:26:05;;;;;;;7.20;2.40;;;;;;;4.24;73.93;95434.00;5050540;28;24469;-74
2022/02/19 02:28:32;;;;;;;12.40;3.00;;;;;;;4.23;73.59;95441.75;5050594;28;24451;-74
2022/02/19 02:30:58;;;;;;;8.05;2.60;;;;;;;4.23;74.58;95441.75;5050772;28;24443;-74
2022/02/19 02:33:25;;;;;;;10.35;2.75;;;;;;;4.17;74.20;95436.88;5050781;28;24426;-74
2022/02/19 02:35:52;;;;;;;12.18;2.83;;;;;;;4.18;74.00;95441.09;5050577;28;24425;-74
2022/02/19 02:38:19;;;;;;;9.93;3.03;;;;;;;4.25;74.27;95452.75;5049477;28;24431;-74
2022/02/19 02:40:47;;;;;;;9.40;2.75;;;;;;;4.22;74.23;95455.44;5050441;28;25153;-74
2022/02/19 02:43:13;;;;;;;9.30;2.92;;;;;;;4.20;74.46;95470.06;5050412;28;24967;-74
2022/02/19 02:45:40;;;;;;;8.65;2.63;;;;;;;4.12;74.52;95470.41;5050448;28;24565;-74
2022/02/19 02:48:06;;;;;;;6.53;2.45;;;;;;;4.10;75.05;95467.88;5050335;28;24426;-74
2022/02/19 02:50:33;;;;;;;9.48;2.83;;;;;;;4.03;75.41;95470.78;5050073;28;24466;-74
2022/02/19 02:52:59;;;;;;;9.35;2.83;;;;;;;4.14;74.73;95473.72;5050352;28;24848;-74
2022/02/19 02:55:26;;;;;;;13.30;2.83;;;;;;;4.07;75.76;95485.13;5050491;28;24968;-74
2022/02/19 02:57:53;;;;;;;11.20;3.13;;;;;;;3.99;75.93;95485.44;5050046;28;24852;-74
2022/02/19 03:00:20;;;;;;;8.63;2.85;;;;;;;3.98;76.08;95491.47;5050486;28;24465;-74
2022/02/19 03:02:46;;;;;;;13.40;2.90;;;;;;;4.00;75.53;95483.72;5050421;28;24423;-74
2022/02/19 03:05:13;;;;;;;13.90;2.60;;;;;;;3.96;76.09;95497.56;5050257;28;24422;-74
2022/02/19 03:07:40;;;;;;;6.00;2.57;;;;;;;4.10;76.12;95500.38;5050084;28;24476;-74
2022/02/19 03:10:08;;;;;;;8.50;2.70;;;;;;;3.90;77.10;95514.03;5050052;28;24446;-74
2022/02/19 03:12:35;;;;;;;13.93;3.10;;;;;;;3.84;76.02;95512.53;5050381;28;24823;-74
2022/02/19 03:15:03;;;;;;;13.07;2.90;;;;;;;3.85;75.82;95505.66;5050313;28;24531;-74
2022/02/19 03:17:36;;;;;;;10.20;2.80;;;;;;;3.90;75.51;95511.47;5049841;28;24785;-74
2022/02/19 03:20:03;;;;;;;8.82;2.90;;;;;;;3.84;76.32;95522.78;5050194;28;24967;-74
2022/02/19 03:22:29;;;;;;;11.68;2.45;;;;;;;3.95;76.59;95518.94;5049983;28;24428;-74
2022/02/19 03:24:57;;;;;;;7.32;2.42;;;;;;;3.85;76.95;95527.00;5050166;28;24431;-74
2022/02/19 03:27:24;;;;;;;12.82;3.05;;;;;;;3.76;77.79;95532.50;5049987;28;24481;-74
2022/02/19 03:29:50;;;;;;;8.60;2.60;;;;;;;3.70;78.46;95531.91;5050001;28;24451;-74
2022/02/19 03:32:18;;;;;;;7.43;2.20;;;;;;;3.75;77.35;95542.81;5050017;28;24411;-74
2022/02/19 03:34:44;;;;;;;10.52;2.63;;;;;;;3.64;77.88;95548.34;5050228;28;24430;-74
2022/02/19 03:37:11;;;;;;;6.95;2.42;;;;;;;3.60;77.85;95547.66;5049682;28;24836;-74
2022/02/19 03:39:37;;;;;;;9.73;2.75;;;;;;;3.61;78.56;95551.88;5049840;28;24431;-74
2022/02/19 03:42:04;;;;;;;11.30;2.80;;;;;;;3.63;78.14;95547.53;5049874;28;24952;-74
2022/02/19 03:44:31;;;;;;;7.55;2.22;;;;;;;3.63;77.43;95557.78;5050073;28;24415;-74
2022/02/19 03:46:57;;;;;;;9.18;2.20;;;;;;;3.52;76.45;95533.44;5049879;28;24434;-74
2022/02/19 03:49:25;;;;;;;9.43;2.67;;;;;;;3.58;74.80;95564.78;5049655;28;24995;-74
2022/02/19 03:51:51;;;;;;;9.25;2.30;;;;;;;3.59;75.78;95574.13;5053831;28;24427;-74
2022/02/19 03:54:18;;;;;;;7.53;2.30;;;;;;;3.49;75.77;95584.81;5053486;28;24426;-74
2022/02/19 03:56:44;;;;;;;5.85;2.50;;;;;;;3.43;76.59;95585.84;5053434;28;24419;-74
2022/02/19 03:59:14;;;;;;;11.15;2.75;;;;;;;3.33;77.17;95603.28;5053687;28;24431;-74
2022/02/19 04:01:40;;;;;;;8.95;2.72;;;;;;;3.33;76.68;95602.44;5053408;28;24462;-74
2022/02/19 04:04:07;;;;;;;14.27;2.53;;;;;;;3.27;77.25;95606.06;5053335;28;24526;-74
2022/02/19 04:06:35;;;;;;;7.50;2.42;;;;;;;3.30;76.86;95605.09;5053176;28;24965;-74
2022/02/19 04:09:02;;;;;;;10.07;2.50;;;;;;;3.23;77.59;95631.84;5053464;28;24777;-74
2022/02/19 04:11:28;;;;;;;8.85;2.75;;;;;;;3.25;78.23;95630.06;5053137;28;24851;-74
2022/02/19 04:13:55;;;;;;;10.35;2.97;;;;;;;3.20;77.88;95627.66;5053247;28;24844;-74
2022/02/19 04:16:21;;;;;;;8.98;2.58;;;;;;;3.20;78.40;95629.41;5053088;28;24469;-74
2022/02/19 04:18:47;;;;;;;7.95;2.65;;;;;;;3.16;78.06;95641.47;5052788;28;24415;-74
2022/02/19 04:21:14;;;;;;;11.88;2.97;;;;;;;3.13;78.11;95644.97;5053303;28;24414;-74
2022/02/19 04:23:42;;;;;;;6.63;2.28;;;;;;;3.20;78.38;95642.19;5053184;28;24425;-74
2022/02/19 04:26:08;;;;;;;8.93;3.00;;;;;;;3.11;78.00;95639.03;5052969;28;24504;-74
2022/02/19 04:28:35;;;;;;;11.10;3.30;;;;;;;3.01;78.45;95636.91;5052657;28;24833;-74
2022/02/19 04:31:01;;;;;;;10.97;2.60;;;;;;;2.98;79.16;95637.00;5053012;28;24443;-74
2022/02/19 04:33:27;;;;;;;8.93;2.50;;;;;;;2.97;78.96;95638.72;5052731;28;24423;-74
2022/02/19 04:35:54;;;;;;;9.85;2.53;;;;;;;2.98;77.79;95625.03;5052897;28;24415;-74
2022/02/19 04:38:23;;;;;;;9.13;2.63;;;;;;;3.00;76.97;95648.00;5052570;28;24785;-74
2022/02/19 04:40:51;;;;;;;10.07;2.83;;;;;;;2.97;76.87;95645.56;5052664;28;24477;-74
2022/02/19 04:43:17;;;;;;;9.18;2.55;;;;;;;3.07;76.25;95659.69;5052576;28;24972;-74
2022/02/19 04:45:44;;;;;;;11.13;2.92;;;;;;;2.96;76.07;95654.94;5052661;28;24428;-74
2022/02/19 04:48:10;;;;;;;10.25;2.78;;;;;;;2.98;76.08;95655.72;5052502;28;24434;-74
2022/02/19 04:50:36;;;;;;;8.55;2.33;;;;;;;2.85;76.25;95664.72;5052587;28;24438;-74
2022/02/19 04:53:04;;;;;;;11.68;2.80;;;;;;;2.96;75.63;95659.22;5052751;28;24424;-74
2022/02/19 04:55:31;;;;;;;7.20;2.50;;;;;;;2.95;76.26;95660.94;5052349;28;24986;-74
2022/02/19 04:57:58;;;;;;;9.60;2.53;;;;;;;2.86;75.94;95669.78;5052067;28;24430;-74
2022/02/19 05:00:25;;;;;;;10.57;2.40;;;;;;;2.84;76.56;95681.78;5052073;28;24418;-74
2022/02/19 05:02:51;;;;;;;9.02;2.60;;;;;;;2.92;75.97;95676.41;5051604;28;24459;-74
2022/02/19 05:05:18;;;;;;;11.95;2.38;;;;;;;2.79;76.38;95685.41;5052210;28;24438;-74
2022/02/19 05:07:44;;;;;;;10.07;2.63;;;;;;;2.79;76.42;95691.34;5051731;28;24439;-74
2022/02/19 05:10:11;;;;;;;9.15;2.58;;;;;;;2.73;76.22;95685.59;5052074;28;24517;-74
2022/02/19 05:12:41;;;;;;;8.00;2.70;;;;;;;2.72;76.66;95689.88;5051994;28;24439;-74
2022/02/19 05:15:11;;;;;;;11.63;2.45;;;;;;;2.71;76.59;95703.56;5051788;28;24538;-74
2022/02/19 05:17:44;;;;;;;12.35;3.15;;;;;;;2.61;77.53;95709.84;5052021;28;24434;-74
2022/02/19 05:20:11;;;;;;;9.00;2.78;;;;;;;2.66;77.28;95703.69;5051965;28;24987;-74
2022/02/19 05:22:37;;;;;;;8.65;2.67;;;;;;;2.66;77.38;95716.47;5052028;28;24411;-74
2022/02/19 05:25:05;;;;;;;9.27;2.58;;;;;;;2.64;77.65;95723.38;5051796;28;24415;-74
2022/02/19 05:27:31;;;;;;;6.88;2.80;;;;;;;2.61;78.22;95720.91;5051514;28;24976;-74
2022/02/19 05:29:58;;;;;;;12.18;2.40;;;;;;;2.66;77.39;95721.59;5051634;28;24451;-74
2022/02/19 05:32:25;;;;;;;10.23;2.58;;;;;;;2.65;78.04;95722.47;5051872;28;24423;-74
2022/02/19 05:34:52;;;;;;;7.65;2.63;;;;;;;2.69;77.56;95736.00;5051797;28;24446;-74
2022/02/19 05:37:19;;;;;;;10.70;2.70;;;;;;;2.65;77.93;95737.81;5051735;28;24509;-74
2022/02/19 05:39:45;;;;;;;9.88;2.63;;;;;;;2.62;77.29;95742.19;5051374;28;24999;-74
2022/02/19 05:42:12;;;;;;;7.28;2.38;;;;;;;2.57;77.90;95738.97;5051457;28;24473;-73
2022/02/19 05:44:38;;;;;;;7.45;2.50;;;;;;;2.48;78.50;95734.97;5051170;28;24422;-73
2022/02/19 05:47:05;;;;;;;7.30;2.78;;;;;;;2.50;77.93;95745.16;5051363;28;24423;-73
2022/02/19 05:49:34;;;;;;;11.93;2.60;;;;;;;2.47;77.40;95758.84;5051399;28;24509;-74
2022/02/19 05:52:00;;;;;;;14.10;2.60;;;;;;;2.50;77.04;95757.94;5051255;28;24923;-73
2022/02/19 05:54:27;;;;;;;10.80;2.50;;;;;;;2.50;77.33;95766.44;5050574;28;24994;-72
2022/02/19 05:56:53;;;;;;;9.35;2.67;;;;;;;2.45;77.26;95759.78;5051153;28;24436;-74
2022/02/19 05:59:20;;;;;;;9.82;2.75;;;;;;;2.47;78.23;95778.47;5051318;28;24422;-74
2022/02/19 06:01:46;;;;;;;10.57;2.90;;;;;;;2.36;77.95;95774.53;5051354;28;24434;-74
2022/02/19 06:04:12;;;;;;;5.68;2.38;;;;;;;2.42;78.59;95779.44;5051199;28;24434;-74
2022/02/19 06:06:40;;;;;;;9.18;2.33;;;;;;;2.38;77.82;95772.75;5050928;28;24832;-74
2022/02/19 06:09:07;;;;;;;9.63;2.40;;;;;;;2.41;78.55;95782.03;5050877;28;24427;-74
2022/02/19 06:11:33;;;;;;;8.18;2.28;;;;;;;2.45;77.68;95777.66;5051107;28;24496;-74
2022/02/19 06:13:59;;;;;;;6.95;2.40;;;;;;;2.27;78.17;95786.75;5051024;28;24427;-74
2022/02/19 06:16:26;;;;;;;8.40;2.58;;;;;;;2.30;78.05;95786.63;5050932;28;24472;-74
2022/02/19 06:18:52;;;;;;;7.22;2.38;;;;;;;2.29;77.72;95782.41;5050712;28;24865;-74
2022/02/19 06:21:19;;;;;;;6.90;2.30;;;;;;;2.34;78.10;95791.63;5050850;28;24415;-74
2022/02/19 06:23:47;;;;;;;8.93;3.15;;;;;;;2.27;78.34;95789.31;5050658;28;24435;-74
2022/02/19 06:26:13;;;;;;;13.50;2.95;;;;;;;2.24;78.41;95797.06;5050904;28;24415;-75
2022/02/19 06:28:39;;;;;;;11.50;2.50;;;;;;;2.28;78.13;95808.88;5050607;28;24852;-75
2022/02/19 06:31:06;;;;;;;6.10;1.92;;;;;;;2.24;77.68;95807.28;5050820;28;24439;-74
2022/02/19 06:33:33;;;;;;;8.90;2.47;;;;;;;2.21;78.03;95817.59;5050669;28;24469;-74
2022/02/19 06:35:59;;;;;;;16.08;2.72;;;;;;;2.14;78.23;95814.38;5050555;28;24526;-74
2022/02/19 06:38:26;;;;;;;12.18;2.95;;;;;;;2.06;78.97;95814.59;5050090;28;24435;-74
2022/02/19 06:40:53;;;;;;;6.95;2.53;;;;;;;2.15;78.69;95822.00;5050638;28;24418;-74
2022/02/19 06:43:20;;;;;;;7.95;2.88;;;;;;;2.22;78.30;95816.69;5050700;28;24415;-74
2022/02/19 06:45:46;;;;;;;9.55;2.65;;;;;;;2.22;77.64;95830.31;5050419;28;24435;-74
2022/02/19 06:48:13;;;;;;;5.82;2.08;;;;;;;2.18;78.71;95839.78;5050069;28;24431;-74
2022/02/19 06:50:39;;;;;;;8.57;2.42;;;;;;;2.20;78.78;95844.03;5050302;28;24462;-74
2022/02/19 06:53:06;;;;;;;7.95;2.47;;;;;;;2.08;78.92;95851.16;5050651;28;24434;-74
2022/02/19 06:55:32;;;;;;;8.35;2.55;;;;;;;2.14;79.05;95855.25;5050461;28;24461;-74
2022/02/19 06:58:00;;;;;;;10.25;2.53;;;;;;;2.28;77.75;95859.97;5049678;28;24504;-74
2022/02/19 07:00:26;;;;;;;7.43;2.55;;;;;;;2.27;78.76;95871.91;5049408;28;24462;-74
2022/02/19 07:02:53;;;;;;;10.75;2.47;;;;;;;2.33;78.66;95869.16;5049413;28;24442;-74
2022/02/19 07:05:19;;;;;;;11.17;2.53;;;;;;;2.31;78.68;95880.34;5049443;28;24516;-74
2022/02/19 07:07:46;;;;;;;7.43;2.10;;;;;;;2.36;79.15;95878.47;5049477;28;24454;-74
2022/02/19 07:10:12;;;;;;;8.65;2.42;;;;;;;2.35;79.19;95889.59;5049935;28;24427;-76
2022/02/19 07:12:39;;;;;;;8.35;2.42;;;;;;;2.41;78.77;95892.81;5050251;28;24427;-74
2022/02/19 07:15:11;;;;;;;6.15;2.42;;;;;;;2.37;79.20;95903.16;5050153;28;24431;-74
2022/02/19 07:17:48;;;;;;;8.02;2.33;;;;;;;2.42;79.20;95908.97;5049897;28;24423;-74
2022/02/19 07:20:14;;;;;;;10.02;2.58;;;;;;;2.45;79.07;95915.69;5050382;28;24473;-74
2022/02/19 07:22:41;;;;;;;8.65;2.47;;;;;;;2.43;79.33;95900.44;5050255;28;24426;-74
2022/02/19 07:25:08;;;;;;;11.25;2.60;;;;;;;2.51;79.00;95918.09;5051527;28;24777;-74
2022/02/19 07:27:38;;;;;;;7.03;2.40;;;;;;;2.52;79.21;95930.00;5053767;28;24481;-76
2022/02/19 07:30:07;;;;;;;7.22;2.10;;;;;;;2.53;78.66;95931.69;5053998;28;24458;-76
2022/02/19 07:32:35;;;;;;;7.53;2.38;;;;;;;2.61;78.83;95929.75;5053865;28;24485;-76
2022/02/19 07:35:01;;;;;;;7.35;2.25;;;;;;;2.60;79.61;95928.91;5054078;28;24424;-76
2022/02/19 07:37:28;;;;;;;16.70;3.20;;;;;;;2.59;79.69;95940.00;5053826;28;24415;-76
2022/02/19 07:39:54;;;;;;;11.60;2.40;;;;;;;2.66;79.55;95938.94;5054346;28;25026;-77
2022/02/19 07:42:21;;;;;;;9.10;2.70;;;;;;;2.79;79.12;95947.09;5053830;28;24418;-77
2022/02/19 07:44:47;;;;;;;11.30;2.63;;;;;;;2.80;79.65;95940.25;5053746;28;24506;-77
2022/02/19 07:47:21;;;;;;;6.72;2.53;;;;;;;2.84;79.22;95945.25;5053527;28;24811;-77
2022/02/19 08:00:45;;;;;;;15.88;3.10;;;;;;;2.89;80.03;95963.00;5053308;28;24522;-77
2022/02/19 08:03:11;;;;;;;6.97;2.50;;;;;;;2.81;79.56;95962.41;5053666;28;24488;-77
2022/02/19 08:05:39;;;;;;;12.32;3.30;;;;;;;2.80;80.27;95968.41;5053281;28;24430;-77
2022/02/19 08:08:05;;;;;;;13.63;3.17;;;;;;;2.79;79.87;95971.84;5053319;28;24419;-77
2022/02/19 08:10:32;;;;;;;8.23;2.70;;;;;;;2.81;79.53;95977.75;5053343;28;24816;-77
2022/02/19 08:12:58;;;;;;;9.07;3.13;;;;;;;2.89;79.73;95983.47;5053364;28;24415;-77
2022/02/19 08:15:25;;;;;;;15.40;3.33;;;;;;;2.87;80.98;95982.69;5053187;28;24481;-77
2022/02/19 08:17:51;;;;;;;16.13;3.50;;;;;;;2.84;79.73;95985.34;5052901;28;24426;-77
2022/02/19 08:20:17;;;;;;;8.65;2.92;;;;;;;2.92;79.41;95993.63;5053068;28;24488;-77
2022/02/19 08:22:45;;;;;;;7.13;2.78;;;;;;;2.90;79.02;95990.28;5052971;28;24800;-77
2022/02/19 08:25:12;;;;;;;9.07;2.63;;;;;;;3.01;78.15;95998.47;5053074;28;24430;-77
2022/02/19 08:27:39;;;;;;;9.45;2.92;;;;;;;2.92;78.71;96004.69;5052659;28;24431;-77
2022/02/19 08:30:08;;;;;;;12.93;3.25;;;;;;;2.99;78.70;96005.34;5052930;28;24953;-76
2022/02/19 08:32:34;;;;;;;6.53;2.13;;;;;;;2.98;78.22;96008.81;5052523;28;24450;-76
2022/02/19 08:35:00;;;;;;;7.60;2.55;;;;;;;2.95;77.91;96011.44;5053079;28;24785;-74
2022/02/19 08:37:27;;;;;;;10.75;2.97;;;;;;;3.00;78.19;96024.09;5052314;28;24431;-78
2022/02/19 08:39:55;;;;;;;7.65;2.20;;;;;;;3.00;78.37;96026.66;5053054;28;24939;-75
2022/02/19 08:42:21;;;;;;;10.57;3.25;;;;;;;2.98;79.09;96031.00;5052587;28;25015;-77
2022/02/19 08:44:48;;;;;;;10.53;2.63;;;;;;;3.16;78.08;96038.13;5053033;28;24518;-75
2022/02/19 08:47:14;;;;;;;9.67;2.40;;;;;;;2.96;79.18;96033.56;5052580;28;24506;-76
2022/02/19 08:49:41;;;;;;;6.60;2.40;;;;;;;3.13;79.61;96051.00;5052056;28;24454;-74
2022/02/19 08:52:08;;;;;;;8.40;2.58;;;;;;;3.18;78.42;96050.88;5061949;28;24446;-74
2022/02/19 08:54:35;;;;;;;8.77;2.80;;;;;;;3.15;79.33;96055.22;5072299;28;24462;-75
2022/02/19 08:57:03;;;;;;;14.48;3.22;;;;;;;3.03;79.25;96063.22;5072257;28;24427;-74
2022/02/19 08:59:29;;;;;;;6.50;2.38;;;;;;;3.23;78.31;96065.22;5072485;28;24426;-74
2022/02/19 09:01:58;;;;;;;7.30;2.50;;;;;;;3.12;79.39;96073.22;5071887;28;24820;-74
2022/02/19 09:04:25;;;;;;;9.57;2.38;;;;;;;3.20;78.52;96074.72;5072057;28;25040;-75
2022/02/19 09:06:51;;;;;;;8.00;2.57;;;;;;;3.34;78.32;96070.88;5072234;28;24548;-75
2022/02/19 09:09:18;;;;;;;12.23;2.97;;;;;;;3.43;78.10;96074.03;5072373;28;24785;-74
2022/02/19 09:11:45;;;;;;;6.35;2.47;;;;;;;3.63;77.44;96069.13;5073426;28;24457;-76
2022/02/19 09:14:13;;;;;;;8.48;2.72;;;;;;;3.66;78.11;96063.91;5072215;28;24468;-76
2022/02/19 09:16:39;;;;;;;9.65;2.75;;;;;;;3.56;78.44;96071.06;5071756;28;24434;-75
2022/02/19 09:19:07;;;;;;;6.90;2.67;;;;;;;3.54;77.28;96067.69;5072201;28;24430;-75
2022/02/19 09:21:36;;;;;;;10.10;2.78;;;;;;;3.62;78.12;96080.28;5071558;28;24517;-75
2022/02/19 09:24:02;;;;;;;9.40;2.70;;;;;;;3.98;78.00;96080.03;5072032;28;24905;-77
2022/02/19 09:26:29;;;;;;;26.55;3.30;;;;;;;3.90;76.95;96082.00;5071566;28;24454;-76
2022/02/19 09:28:56;;;;;;;8.93;2.67;;;;;;;4.16;76.74;96081.16;5071838;28;24453;-76
2022/02/19 09:31:24;;;;;;;15.40;2.63;;;;;;;4.11;76.76;96091.53;5071690;28;24513;-76
2022/02/19 09:33:50;;;;;;;10.48;2.13;;;;;;;4.19;75.82;96075.91;5071779;28;24469;-76
2022/02/19 09:36:17;;;;;;;12.63;3.85;;;;;;;4.13;78.08;96082.91;5071583;28;24951;-76
2022/02/19 09:38:44;;;;;;;8.30;2.72;;;;;;;4.18;75.06;96087.06;5071105;28;24431;-76
2022/02/19 09:41:12;;;;;;;6.93;2.90;;;;;;;4.55;75.50;96077.25;5071597;28;24417;-76
2022/02/19 09:43:41;;;;;;;9.38;2.63;;;;;;;4.45;73.88;96082.72;5071453;28;24418;-77
2022/02/19 09:46:08;;;;;;;11.70;2.60;;;;;;;4.43;74.22;96085.34;5071476;28;25007;-77
2022/02/19 09:48:37;;;;;;;6.80;2.20;;;;;;;4.29;72.14;96084.97;5071217;28;24437;-76
2022/02/19 09:51:05;;;;;;;6.85;2.47;;;;;;;4.09;73.03;96091.59;5071546;28;24480;-76
2022/02/19 09:53:32;;;;;;;6.60;2.10;;;;;;;4.04;74.05;96090.06;5069914;28;24835;-75
2022/02/19 09:55:58;;;;;;;6.07;2.10;;;;;;;3.90;72.16;96098.19;5050504;28;24531;-76
2022/02/19 09:58:26;;;;;;;6.18;2.38;;;;;;;3.92;72.87;96096.41;5050807;28;24442;-76
2022/02/19 10:00:54;;;;;;;6.38;2.15;;;;;;;3.94;73.68;96099.78;5051497;28;24435;-77
2022/02/19 10:03:26;;;;;;;10.65;2.33;;;;;;;4.05;73.62;96102.84;5051499;28;24430;-76
2022/02/19 10:05:55;;;;;;;6.20;2.33;;;;;;;4.11;73.02;96100.06;5051280;28;24435;-77
2022/02/19 10:08:22;;;;;;;7.20;2.25;;;;;;;4.31;72.58;96099.44;5051111;28;24430;-77
2022/02/19 10:10:50;;;;;;;6.93;2.30;;;;;;;4.48;70.75;96096.28;5051499;28;24509;-76
2022/02/19 10:13:31;;;;;;;6.77;2.13;;;;;;;4.38;69.75;96097.50;5051394;28;24455;-76
2022/02/19 10:15:58;;;;;;;8.10;2.20;;;;;;;4.53;70.68;96093.59;5051213;28;24428;-77
2022/02/19 10:18:26;;;;;;;7.93;2.38;;;;;;;4.58;70.41;96089.97;5050888;28;24431;-77
2022/02/19 10:21:08;;;;;;;7.25;2.00;;;;;;;4.69;70.58;96094.72;5051406;28;24430;-77
2022/02/19 10:23:35;;;;;;;14.98;2.55;;;;;;;5.00;67.51;96091.91;5051540;28;24465;-77
2022/02/19 10:26:02;;;;;;;4.68;1.90;;;;;;;4.95;66.88;96100.69;5051024;28;24481;-77
2022/02/19 10:28:29;;;;;;;5.10;2.00;;;;;;;5.04;67.28;96098.66;5050103;28;24446;-77
2022/02/19 10:30:56;;;;;;;7.57;2.33;;;;;;;5.45;66.91;96096.31;5051099;28;24543;-77
2022/02/19 10:33:26;;;;;;;6.27;2.30;;;;;;;5.66;65.27;96086.09;5050673;28;24840;-77
2022/02/19 10:35:54;;;;;;;8.05;2.50;;;;;;;5.61;65.06;96088.00;5050576;28;24450;-77
2022/02/19 10:38:20;;;;;;;5.10;2.17;;;;;;;6.06;64.28;96082.84;5050764;28;24684;-77
2022/02/19 10:40:48;;;;;;;6.05;2.20;;;;;;;5.98;62.37;96082.31;5051365;28;24415;-77
2022/02/19 10:43:17;;;;;;;6.88;2.28;;;;;;;6.07;62.29;96074.22;5050929;28;24423;-77
2022/02/19 10:45:54;;;;;;;6.55;2.03;;;;;;;5.81;63.07;96082.91;5050939;28;24428;-76
2022/02/19 10:48:25;;;;;;;6.38;2.13;;;;;;;6.18;62.34;96084.91;5042956;28;24980;-77
2022/02/19 10:50:51;;;;;;;6.45;2.50;;;;;;;5.89;62.17;96083.44;5051315;28;24454;-77
2022/02/19 10:53:24;;;;;;;5.38;2.17;;;;;;;5.75;63.29;96086.59;5050182;28;24451;-76
2022/02/19 10:55:51;;;;;;;6.32;2.42;;;;;;;5.84;61.87;96082.81;5047272;28;24980;-77
2022/02/19 10:58:18;;;;;;;5.68;2.13;;;;;;;5.25;63.33;96073.91;5050678;28;24430;-77
2022/02/19 11:00:45;;;;;;;5.88;2.15;;;;;;;5.39;64.17;96080.28;5050094;28;24423;-77
2022/02/19 11:03:13;;;;;;;11.75;2.72;;;;;;;5.46;63.87;96082.56;5051112;28;24407;-76
2022/02/19 11:05:40;;;;;;;4.97;1.73;;;;;;;5.39;62.84;96085.41;5050903;28;24500;-77
2022/02/19 11:08:08;;;;;;;8.52;2.45;;;;;;;5.13;63.48;96091.50;5050080;28;24800;-77
2022/02/19 11:10:37;;;;;;;5.82;2.30;;;;;;;5.03;64.66;96096.94;5050322;28;25018;-77
2022/02/19 11:13:04;;;;;;;4.38;1.80;;;;;;;4.92;64.82;96093.94;5050017;28;24546;-77
2022/02/19 11:15:31;;;;;;;5.40;1.90;;;;;;;5.13;64.82;96087.19;5049977;28;24431;-76
2022/02/19 11:17:58;;;;;;;13.27;2.53;;;;;;;5.06;64.30;96088.31;5050254;28;24442;-77
2022/02/19 11:20:25;;;;;;;8.00;2.30;;;;;;;4.81;66.59;96103.72;5050472;28;24431;-76
2022/02/19 11:22:53;;;;;;;6.63;2.05;;;;;;;4.64;64.63;96098.38;5050259;28;24434;-77
2022/02/19 11:25:21;;;;;;;5.38;1.92;;;;;;;4.60;63.94;96095.06;5049797;28;24470;-76
2022/02/19 11:27:54;;;;;;;5.85;2.20;;;;;;;5.00;64.24;96085.94;5049723;28;24423;-77
2022/02/19 11:30:21;;;;;;;5.13;1.77;;;;;;;5.25;63.56;96102.16;5050431;28;24435;-77
2022/02/19 11:32:50;;;;;;;5.13;1.90;;;;;;;5.36;62.17;96091.47;5050187;28;24550;-77
2022/02/19 11:35:31;;;;;;;4.07;1.77;;;;;;;5.45;61.88;96098.00;5050062;28;24493;-77
2022/02/19 11:37:57;;;;;;;9.30;2.00;;;;;;;5.52;62.04;96094.31;5048129;28;24431;-76
2022/02/19 11:40:25;;;;;;;5.72;1.92;;;;;;;5.57;59.84;96082.16;5050281;28;24438;-77
2022/02/19 11:42:54;;;;;;;4.85;1.95;;;;;;;5.65;61.50;96081.84;5050494;28;24457;-77
2022/02/19 11:45:29;;;;;;;5.28;1.90;;;;;;;5.38;60.88;96073.44;5050326;28;24434;-76
2022/02/19 11:48:27;;;;;;;5.32;1.90;;;;;;;5.24;62.78;96066.28;5046831;28;24431;-76
2022/02/19 11:51:15;;;;;;;8.55;1.95;;;;;;;4.90;63.63;96066.66;5046942;28;24435;-76